sensor_id;sensor_type;location;lat;lon;timestamp;pressure;altitude;pressure_sealevel;temperature;humidity
62458;BME280;48509;52.122;5.250;2023-03-16T00:00:35;101749.0;;;7.04;72.81
62458;BME280;48509;52.122;5.250;2023-03-16T00:02:11;101744.0;;;7.13;71.66
62458;BME280;48509;52.122;5.250;2023-03-16T00:05:24;101748.0;;;7.07;71.67
62458;BME280;48509;52.122;5.250;2023-03-16T00:07:00;101744.0;;;7.09;72.69
62458;BME280;48509;52.122;5.250;2023-03-16T00:08:36;101745.0;;;7.02;73.05
62458;BME280;48509;52.122;5.250;2023-03-16T00:11:49;101739.0;;;7.08;73.22
62458;BME280;48509;52.122;5.250;2023-03-16T00:13:25;101730.0;;;7.04;73.64
62458;BME280;48509;52.122;5.250;2023-03-16T00:15:02;101722.0;;;7.17;72.45
62458;BME280;48509;52.122;5.250;2023-03-16T00:16:38;101728.0;;;7.04;71.61
62458;BME280;48509;52.122;5.250;2023-03-16T00:19:51;101725.0;;;7.11;72.33
62458;BME280;48509;52.122;5.250;2023-03-16T00:21:29;101721.0;;;7.12;73.27
62458;BME280;48509;52.122;5.250;2023-03-16T00:23:05;101719.0;;;7.22;72.3
62458;BME280;48509;52.122;5.250;2023-03-16T00:26:17;101714.0;;;7.31;72.22
62458;BME280;48509;52.122;5.250;2023-03-16T00:27:53;101717.0;;;7.13;71.47
62458;BME280;48509;52.122;5.250;2023-03-16T00:29:30;101716.0;;;7.14;73.44
62458;BME280;48509;52.122;5.250;2023-03-16T00:32:45;101705.0;;;7.12;73.16
62458;BME280;48509;52.122;5.250;2023-03-16T00:34:21;101705.0;;;7.14;73.34
62458;BME280;48509;52.122;5.250;2023-03-16T00:35:57;101706.0;;;7.09;73.83
62458;BME280;48509;52.122;5.250;2023-03-16T00:37:33;101702.0;;;7.15;73.53
62458;BME280;48509;52.122;5.250;2023-03-16T00:40:45;101700.0;;;7.18;73.8
62458;BME280;48509;52.122;5.250;2023-03-16T00:42:23;101703.0;;;6.98;75.8
62458;BME280;48509;52.122;5.250;2023-03-16T00:44:00;101691.0;;;7.22;73.27
62458;BME280;48509;52.122;5.250;2023-03-16T00:47:12;101697.0;;;7.15;74.8
62458;BME280;48509;52.122;5.250;2023-03-16T00:48:49;101700.0;;;7.1;75.39
62458;BME280;48509;52.122;5.250;2023-03-16T00:50:25;101697.0;;;7.14;75.33
62458;BME280;48509;52.122;5.250;2023-03-16T00:53:40;101693.0;;;7.12;74.42
62458;BME280;48509;52.122;5.250;2023-03-16T00:55:17;101693.0;;;7.17;74.72
62458;BME280;48509;52.122;5.250;2023-03-16T00:56:53;101686.0;;;7.14;76.02
62458;BME280;48509;52.122;5.250;2023-03-16T00:58:29;101684.0;;;7.03;75.81
62458;BME280;48509;52.122;5.250;2023-03-16T01:01:42;101671.0;;;7.22;74.69
62458;BME280;48509;52.122;5.250;2023-03-16T01:03:18;101669.0;;;7.2;75.11
62458;BME280;48509;52.122;5.250;2023-03-16T01:04:54;101668.0;;;7.34;74.42
62458;BME280;48509;52.122;5.250;2023-03-16T01:08:07;101665.0;;;7.24;74.97
62458;BME280;48509;52.122;5.250;2023-03-16T01:09:44;101657.0;;;7.2;75.2
62458;BME280;48509;52.122;5.250;2023-03-16T01:11:22;101658.0;;;7.15;75.63
62458;BME280;48509;52.122;5.250;2023-03-16T01:14:35;101655.0;;;7.23;75.05
62458;BME280;48509;52.122;5.250;2023-03-16T01:16:12;101653.0;;;7.26;74.11
62458;BME280;48509;52.122;5.250;2023-03-16T01:17:49;101651.0;;;7.15;76.22
62458;BME280;48509;52.122;5.250;2023-03-16T01:19:26;101647.0;;;7.25;76.53
62458;BME280;48509;52.122;5.250;2023-03-16T01:22:41;101661.0;;;7.37;74.62
62458;BME280;48509;52.122;5.250;2023-03-16T01:24:18;101656.0;;;7.45;74.83
62458;BME280;48509;52.122;5.250;2023-03-16T01:25:54;101652.0;;;7.29;76.17
62458;BME280;48509;52.122;5.250;2023-03-16T01:29:07;101642.0;;;7.33;75.94
62458;BME280;48509;52.122;5.250;2023-03-16T01:30:43;101642.0;;;7.31;74.73
62458;BME280;48509;52.122;5.250;2023-03-16T01:32:19;101637.0;;;7.37;75.13
62458;BME280;48509;52.122;5.250;2023-03-16T01:35:33;101637.0;;;7.33;75.37
62458;BME280;48509;52.122;5.250;2023-03-16T01:37:09;101634.0;;;7.24;75.83
62458;BME280;48509;52.122;5.250;2023-03-16T01:38:46;101628.0;;;7.29;76.63
62458;BME280;48509;52.122;5.250;2023-03-16T01:40:22;101627.0;;;7.35;76.37
62458;BME280;48509;52.122;5.250;2023-03-16T01:43:36;101624.0;;;7.19;76.2
62458;BME280;48509;52.122;5.250;2023-03-16T01:46:22;101620.0;;;7.26;76.86
62458;BME280;48509;52.122;5.250;2023-03-16T01:47:59;101621.0;;;7.18;77.81
62458;BME280;48509;52.122;5.250;2023-03-16T01:49:36;101624.0;;;7.22;77.28
62458;BME280;48509;52.122;5.250;2023-03-16T01:51:15;101622.0;;;7.34;77.42
62458;BME280;48509;52.122;5.250;2023-03-16T01:52:53;101608.0;;;7.24;77.73
62458;BME280;48509;52.122;5.250;2023-03-16T01:56:12;101601.0;;;7.4;76.77
62458;BME280;48509;52.122;5.250;2023-03-16T01:57:51;101598.0;;;7.43;76.36
62458;BME280;48509;52.122;5.250;2023-03-16T01:59:33;101596.0;;;7.36;77.11
62458;BME280;48509;52.122;5.250;2023-03-16T02:01:13;101597.0;;;7.46;76.74
62458;BME280;48509;52.122;5.250;2023-03-16T02:04:37;101595.0;;;7.35;78.02
62458;BME280;48509;52.122;5.250;2023-03-16T02:06:19;101591.0;;;7.29;77.09
62458;BME280;48509;52.122;5.250;2023-03-16T02:07:56;101591.0;;;7.3;76.99
62458;BME280;48509;52.122;5.250;2023-03-16T02:09:33;101584.0;;;7.22;77.89
62458;BME280;48509;52.122;5.250;2023-03-16T02:12:50;101581.0;;;7.33;78.11
62458;BME280;48509;52.122;5.250;2023-03-16T02:14:27;101582.0;;;7.25;77.69
62458;BME280;48509;52.122;5.250;2023-03-16T02:16:05;101580.0;;;7.42;76.64
62458;BME280;48509;52.122;5.250;2023-03-16T02:19:29;101576.0;;;7.47;76.67
62458;BME280;48509;52.122;5.250;2023-03-16T02:21:16;101575.0;;;7.49;77.7
62458;BME280;48509;52.122;5.250;2023-03-16T02:22:56;101570.0;;;7.54;78.23
62458;BME280;48509;52.122;5.250;2023-03-16T02:24:33;101569.0;;;7.46;79.95
62458;BME280;48509;52.122;5.250;2023-03-16T02:27:59;101564.0;;;7.47;79.52
62458;BME280;48509;52.122;5.250;2023-03-16T02:29:51;101562.0;;;7.3;79.91
62458;BME280;48509;52.122;5.250;2023-03-16T02:31:51;101557.0;;;7.41;79.3
62458;BME280;48509;52.122;5.250;2023-03-16T02:33:29;101560.0;;;7.49;78.61
62458;BME280;48509;52.122;5.250;2023-03-16T02:35:09;101557.0;;;7.31;81.3
62458;BME280;48509;52.122;5.250;2023-03-16T02:36:47;101553.0;;;7.3;79.86
62458;BME280;48509;52.122;5.250;2023-03-16T02:40:12;101563.0;;;7.4;80.97
62458;BME280;48509;52.122;5.250;2023-03-16T02:41:54;101559.0;;;7.42;80.58
62458;BME280;48509;52.122;5.250;2023-03-16T02:43:33;101561.0;;;7.38;80.52
62458;BME280;48509;52.122;5.250;2023-03-16T02:45:11;101559.0;;;7.4;79.97
62458;BME280;48509;52.122;5.250;2023-03-16T02:48:31;101568.0;;;7.47;79.13
62458;BME280;48509;52.122;5.250;2023-03-16T02:50:11;101570.0;;;7.46;79.44
62458;BME280;48509;52.122;5.250;2023-03-16T02:51:47;101572.0;;;7.5;79.83
62458;BME280;48509;52.122;5.250;2023-03-16T02:55:00;101571.0;;;7.51;80.83
62458;BME280;48509;52.122;5.250;2023-03-16T02:56:37;101574.0;;;7.38;82.47
62458;BME280;48509;52.122;5.250;2023-03-16T02:58:14;101573.0;;;7.48;81.83
62458;BME280;48509;52.122;5.250;2023-03-16T02:59:50;101571.0;;;7.56;82.56
62458;BME280;48509;52.122;5.250;2023-03-16T03:03:03;101570.0;;;7.54;80.56
62458;BME280;48509;52.122;5.250;2023-03-16T03:04:40;101573.0;;;7.4;82.23
62458;BME280;48509;52.122;5.250;2023-03-16T03:06:17;101563.0;;;7.42;82.73
62458;BME280;48509;52.122;5.250;2023-03-16T03:09:30;101564.0;;;7.42;83.08
62458;BME280;48509;52.122;5.250;2023-03-16T03:11:06;101562.0;;;7.36;83.12
62458;BME280;48509;52.122;5.250;2023-03-16T03:12:42;101557.0;;;7.35;84.59
62458;BME280;48509;52.122;5.250;2023-03-16T03:15:54;101555.0;;;7.13;85.76
62458;BME280;48509;52.122;5.250;2023-03-16T03:17:31;101555.0;;;7.27;84.84
62458;BME280;48509;52.122;5.250;2023-03-16T03:19:07;101551.0;;;7.24;86.39
62458;BME280;48509;52.122;5.250;2023-03-16T03:20:43;101555.0;;;7.2;85.55
62458;BME280;48509;52.122;5.250;2023-03-16T03:23:56;101551.0;;;7.27;84.98
62458;BME280;48509;52.122;5.250;2023-03-16T03:25:32;101549.0;;;7.33;85.65
62458;BME280;48509;52.122;5.250;2023-03-16T03:27:08;101550.0;;;7.4;84.86
62458;BME280;48509;52.122;5.250;2023-03-16T03:30:23;101545.0;;;7.36;85.75
62458;BME280;48509;52.122;5.250;2023-03-16T03:32:02;101550.0;;;7.12;89.08
62458;BME280;48509;52.122;5.250;2023-03-16T03:33:39;101551.0;;;6.96;90.46
62458;BME280;48509;52.122;5.250;2023-03-16T03:36:51;101540.0;;;7.09;89.51
62458;BME280;48509;52.122;5.250;2023-03-16T03:38:27;101536.0;;;7.1;90.12
62458;BME280;48509;52.122;5.250;2023-03-16T03:40:05;101534.0;;;7.07;90.57
62458;BME280;48509;52.122;5.250;2023-03-16T03:41:41;101531.0;;;7.1;90.33
62458;BME280;48509;52.122;5.250;2023-03-16T03:44:55;101530.0;;;7.2;89.53
62458;BME280;48509;52.122;5.250;2023-03-16T03:46:31;101522.0;;;7.15;90.32
62458;BME280;48509;52.122;5.250;2023-03-16T03:48:07;101517.0;;;7.3;89.54
62458;BME280;48509;52.122;5.250;2023-03-16T03:51:19;101518.0;;;7.29;90.09
62458;BME280;48509;52.122;5.250;2023-03-16T03:52:55;101521.0;;;7.22;91.28
62458;BME280;48509;52.122;5.250;2023-03-16T03:54:31;101519.0;;;7.2;91.12
62458;BME280;48509;52.122;5.250;2023-03-16T03:57:44;101516.0;;;7.08;92.92
62458;BME280;48509;52.122;5.250;2023-03-16T03:59:20;101518.0;;;7.08;93.36
62458;BME280;48509;52.122;5.250;2023-03-16T04:00:56;101512.0;;;7.09;93.17
62458;BME280;48509;52.122;5.250;2023-03-16T04:02:32;101508.0;;;7.13;93.2
62458;BME280;48509;52.122;5.250;2023-03-16T04:05:45;101502.0;;;7.27;92.33
62458;BME280;48509;52.122;5.250;2023-03-16T04:07:21;101499.0;;;7.26;92.56
62458;BME280;48509;52.122;5.250;2023-03-16T04:08:57;101495.0;;;7.14;92.75
62458;BME280;48509;52.122;5.250;2023-03-16T04:12:10;101494.0;;;6.94;94.09
62458;BME280;48509;52.122;5.250;2023-03-16T04:13:50;101493.0;;;7.07;93.86
62458;BME280;48509;52.122;5.250;2023-03-16T04:15:26;101489.0;;;7.12;93.57
62458;BME280;48509;52.122;5.250;2023-03-16T04:18:38;101491.0;;;7.04;93.89
62458;BME280;48509;52.122;5.250;2023-03-16T04:20:15;101486.0;;;6.79;95.89
62458;BME280;48509;52.122;5.250;2023-03-16T04:21:51;101481.0;;;6.93;95.12
62458;BME280;48509;52.122;5.250;2023-03-16T04:23:27;101485.0;;;6.94;95.17
62458;BME280;48509;52.122;5.250;2023-03-16T04:26:40;101487.0;;;6.87;96.34
62458;BME280;48509;52.122;5.250;2023-03-16T04:28:16;101488.0;;;6.84;97.14
62458;BME280;48509;52.122;5.250;2023-03-16T04:29:52;101489.0;;;6.78;97.85
62458;BME280;48509;52.122;5.250;2023-03-16T04:33:04;101485.0;;;6.72;97.63
62458;BME280;48509;52.122;5.250;2023-03-16T04:34:40;101484.0;;;6.85;97.14
62458;BME280;48509;52.122;5.250;2023-03-16T04:36:16;101484.0;;;6.9;96.56
62458;BME280;48509;52.122;5.250;2023-03-16T04:39:29;101484.0;;;7.04;95.66
62458;BME280;48509;52.122;5.250;2023-03-16T04:41:05;101485.0;;;6.97;95.71
62458;BME280;48509;52.122;5.250;2023-03-16T04:42:42;101487.0;;;7.06;94.98
62458;BME280;48509;52.122;5.250;2023-03-16T04:45:55;101484.0;;;7.07;94.49
62458;BME280;48509;52.122;5.250;2023-03-16T04:47:31;101481.0;;;6.84;96.15
62458;BME280;48509;52.122;5.250;2023-03-16T04:49:08;101482.0;;;7.03;95.34
62458;BME280;48509;52.122;5.250;2023-03-16T04:50:47;101480.0;;;7.06;95.39
62458;BME280;48509;52.122;5.250;2023-03-16T04:54:00;101473.0;;;7.07;94.72
62458;BME280;48509;52.122;5.250;2023-03-16T04:55:36;101471.0;;;7.08;94.18
62458;BME280;48509;52.122;5.250;2023-03-16T04:57:12;101471.0;;;7.13;93.79
62458;BME280;48509;52.122;5.250;2023-03-16T05:00:26;101467.0;;;7.24;92.41
62458;BME280;48509;52.122;5.250;2023-03-16T05:02:02;101476.0;;;7.05;94.04
62458;BME280;48509;52.122;5.250;2023-03-16T05:03:40;101473.0;;;7.11;92.94
62458;BME280;48509;52.122;5.250;2023-03-16T05:06:53;101475.0;;;7.03;92.72
62458;BME280;48509;52.122;5.250;2023-03-16T05:08:29;101480.0;;;7.01;93.72
62458;BME280;48509;52.122;5.250;2023-03-16T05:10:06;101478.0;;;7.01;94.05
62458;BME280;48509;52.122;5.250;2023-03-16T05:11:42;101481.0;;;7.11;93.8
62458;BME280;48509;52.122;5.250;2023-03-16T05:14:55;101477.0;;;7.17;92.27
62458;BME280;48509;52.122;5.250;2023-03-16T05:16:31;101473.0;;;7.3;91.58
62458;BME280;48509;52.122;5.250;2023-03-16T05:18:08;101473.0;;;7.28;91.86
62458;BME280;48509;52.122;5.250;2023-03-16T05:21:20;101474.0;;;7.32;90.82
62458;BME280;48509;52.122;5.250;2023-03-16T05:22:56;101480.0;;;7.32;90.79
62458;BME280;48509;52.122;5.250;2023-03-16T05:24:32;101477.0;;;7.33;91.15
62458;BME280;48509;52.122;5.250;2023-03-16T05:27:47;101472.0;;;7.42;91.27
62458;BME280;48509;52.122;5.250;2023-03-16T05:29:24;101474.0;;;7.27;91.11
62458;BME280;48509;52.122;5.250;2023-03-16T05:31:00;101472.0;;;7.31;91.76
62458;BME280;48509;52.122;5.250;2023-03-16T05:32:36;101471.0;;;7.1;92.91
62458;BME280;48509;52.122;5.250;2023-03-16T05:35:49;101472.0;;;7.14;93.78
62458;BME280;48509;52.122;5.250;2023-03-16T05:37:26;101471.0;;;7.22;92.69
62458;BME280;48509;52.122;5.250;2023-03-16T05:39:02;101465.0;;;7.19;93.73
62458;BME280;48509;52.122;5.250;2023-03-16T05:42:14;101473.0;;;7.25;93.35
62458;BME280;48509;52.122;5.250;2023-03-16T05:43:51;101461.0;;;7.12;94.08
62458;BME280;48509;52.122;5.250;2023-03-16T05:45:27;101460.0;;;7.19;92.36
62458;BME280;48509;52.122;5.250;2023-03-16T05:48:39;101453.0;;;7.16;92.98
62458;BME280;48509;52.122;5.250;2023-03-16T05:50:16;101448.0;;;7.1;94.66
62458;BME280;48509;52.122;5.250;2023-03-16T05:51:52;101449.0;;;7.14;94.16
62458;BME280;48509;52.122;5.250;2023-03-16T05:53:28;101446.0;;;7.19;93.79
62458;BME280;48509;52.122;5.250;2023-03-16T05:56:42;101446.0;;;7.27;92.76
62458;BME280;48509;52.122;5.250;2023-03-16T05:58:19;101447.0;;;7.15;93.95
62458;BME280;48509;52.122;5.250;2023-03-16T05:59:55;101443.0;;;7.16;93.61
62458;BME280;48509;52.122;5.250;2023-03-16T06:03:07;101448.0;;;7.19;94.06
62458;BME280;48509;52.122;5.250;2023-03-16T06:04:43;101448.0;;;7.18;94.3
62458;BME280;48509;52.122;5.250;2023-03-16T06:06:20;101448.0;;;7.12;94.86
62458;BME280;48509;52.122;5.250;2023-03-16T06:09:34;101448.0;;;6.99;95.6
62458;BME280;48509;52.122;5.250;2023-03-16T06:11:10;101446.0;;;6.95;95.14
62458;BME280;48509;52.122;5.250;2023-03-16T06:12:47;101443.0;;;7.0;95.14
62458;BME280;48509;52.122;5.250;2023-03-16T06:14:23;101444.0;;;7.05;94.18
62458;BME280;48509;52.122;5.250;2023-03-16T06:17:36;101450.0;;;7.12;94.16
62458;BME280;48509;52.122;5.250;2023-03-16T06:19:13;101442.0;;;7.15;94.54
62458;BME280;48509;52.122;5.250;2023-03-16T06:20:49;101440.0;;;7.12;94.56
62458;BME280;48509;52.122;5.250;2023-03-16T06:24:03;101440.0;;;7.13;94.39
62458;BME280;48509;52.122;5.250;2023-03-16T06:25:40;101437.0;;;7.13;93.27
62458;BME280;48509;52.122;5.250;2023-03-16T06:27:16;101435.0;;;7.26;93.13
62458;BME280;48509;52.122;5.250;2023-03-16T06:30:29;101428.0;;;7.11;94.46
62458;BME280;48509;52.122;5.250;2023-03-16T06:32:05;101425.0;;;7.23;94.34
62458;BME280;48509;52.122;5.250;2023-03-16T06:33:41;101422.0;;;7.09;94.63
62458;BME280;48509;52.122;5.250;2023-03-16T06:35:18;101421.0;;;7.15;95.69
62458;BME280;48509;52.122;5.250;2023-03-16T06:38:30;101421.0;;;7.22;94.89
62458;BME280;48509;52.122;5.250;2023-03-16T06:40:07;101420.0;;;7.33;94.47
62458;BME280;48509;52.122;5.250;2023-03-16T06:41:44;101418.0;;;7.25;95.61
62458;BME280;48509;52.122;5.250;2023-03-16T06:44:56;101419.0;;;7.37;95.72
62458;BME280;48509;52.122;5.250;2023-03-16T06:46:32;101416.0;;;7.28;95.72
62458;BME280;48509;52.122;5.250;2023-03-16T06:48:08;101410.0;;;7.26;96.02
62458;BME280;48509;52.122;5.250;2023-03-16T06:51:21;101414.0;;;7.22;96.75
62458;BME280;48509;52.122;5.250;2023-03-16T06:52:57;101414.0;;;7.33;96.49
62458;BME280;48509;52.122;5.250;2023-03-16T06:54:33;101421.0;;;7.34;96.4
62458;BME280;48509;52.122;5.250;2023-03-16T06:56:09;101408.0;;;7.37;96.34
62458;BME280;48509;52.122;5.250;2023-03-16T06:59:22;101413.0;;;7.43;95.67
62458;BME280;48509;52.122;5.250;2023-03-16T07:01:00;101410.0;;;7.43;95.72
62458;BME280;48509;52.122;5.250;2023-03-16T07:02:37;101408.0;;;7.54;95.55
62458;BME280;48509;52.122;5.250;2023-03-16T07:05:49;101409.0;;;7.53;95.27
62458;BME280;48509;52.122;5.250;2023-03-16T07:07:25;101405.0;;;7.28;96.45
62458;BME280;48509;52.122;5.250;2023-03-16T07:09:01;101405.0;;;7.32;96.66
62458;BME280;48509;52.122;5.250;2023-03-16T07:12:14;101403.0;;;7.34;95.46
62458;BME280;48509;52.122;5.250;2023-03-16T07:13:51;101405.0;;;7.45;93.87
62458;BME280;48509;52.122;5.250;2023-03-16T07:15:27;101393.0;;;7.51;93.56
62458;BME280;48509;52.122;5.250;2023-03-16T07:18:39;101407.0;;;7.55;93.89
62458;BME280;48509;52.122;5.250;2023-03-16T07:20:15;101402.0;;;7.6;94.93
62458;BME280;48509;52.122;5.250;2023-03-16T07:21:51;101403.0;;;7.52;95.99
62458;BME280;48509;52.122;5.250;2023-03-16T07:23:27;101398.0;;;7.5;96.22
62458;BME280;48509;52.122;5.250;2023-03-16T07:26:42;101401.0;;;7.49;95.75
62458;BME280;48509;52.122;5.250;2023-03-16T07:28:18;101396.0;;;7.54;95.7
62458;BME280;48509;52.122;5.250;2023-03-16T07:29:55;101393.0;;;7.58;95.62
62458;BME280;48509;52.122;5.250;2023-03-16T07:33:07;101396.0;;;7.52;97.19
62458;BME280;48509;52.122;5.250;2023-03-16T07:34:44;101386.0;;;7.63;96.36
62458;BME280;48509;52.122;5.250;2023-03-16T07:36:20;101392.0;;;7.54;97.34
62458;BME280;48509;52.122;5.250;2023-03-16T07:39:32;101394.0;;;7.52;95.67
62458;BME280;48509;52.122;5.250;2023-03-16T07:41:08;101396.0;;;7.39;97.42
62458;BME280;48509;52.122;5.250;2023-03-16T07:42:44;101393.0;;;7.42;96.8
62458;BME280;48509;52.122;5.250;2023-03-16T07:44:20;101402.0;;;7.48;96.86
62458;BME280;48509;52.122;5.250;2023-03-16T07:47:33;101397.0;;;7.49;97.53
62458;BME280;48509;52.122;5.250;2023-03-16T07:49:10;101396.0;;;7.63;97.34
62458;BME280;48509;52.122;5.250;2023-03-16T07:50:47;101403.0;;;7.5;98.68
62458;BME280;48509;52.122;5.250;2023-03-16T07:53:59;101409.0;;;7.62;97.91
62458;BME280;48509;52.122;5.250;2023-03-16T07:55:35;101411.0;;;7.64;97.61
62458;BME280;48509;52.122;5.250;2023-03-16T07:57:11;101417.0;;;7.48;97.99
62458;BME280;48509;52.122;5.250;2023-03-16T08:00:24;101411.0;;;7.73;97.29
62458;BME280;48509;52.122;5.250;2023-03-16T08:02:00;101406.0;;;7.51;97.92
62458;BME280;48509;52.122;5.250;2023-03-16T08:03:36;101401.0;;;7.65;98.46
62458;BME280;48509;52.122;5.250;2023-03-16T08:05:13;101399.0;;;7.67;97.98
62458;BME280;48509;52.122;5.250;2023-03-16T08:08:25;101396.0;;;7.73;98.91
62458;BME280;48509;52.122;5.250;2023-03-16T08:10:02;101394.0;;;7.83;98.32
62458;BME280;48509;52.122;5.250;2023-03-16T08:11:38;101388.0;;;7.85;98.21
62458;BME280;48509;52.122;5.250;2023-03-16T08:14:51;101385.0;;;8.02;97.58
62458;BME280;48509;52.122;5.250;2023-03-16T08:16:27;101380.0;;;7.94;93.78
62458;BME280;48509;52.122;5.250;2023-03-16T08:18:03;101376.0;;;7.96;94.08
62458;BME280;48509;52.122;5.250;2023-03-16T08:21:16;101374.0;;;8.03;95.21
62458;BME280;48509;52.122;5.250;2023-03-16T08:22:53;101378.0;;;8.14;92.95
62458;BME280;48509;52.122;5.250;2023-03-16T08:24:28;101374.0;;;8.06;95.37
62458;BME280;48509;52.122;5.250;2023-03-16T08:27:41;101375.0;;;8.08;91.33
62458;BME280;48509;52.122;5.250;2023-03-16T08:29:17;101376.0;;;8.13;92.79
62458;BME280;48509;52.122;5.250;2023-03-16T08:30:54;101377.0;;;8.15;94.17
62458;BME280;48509;52.122;5.250;2023-03-16T08:32:31;101382.0;;;8.31;91.85
62458;BME280;48509;52.122;5.250;2023-03-16T08:35:45;101380.0;;;8.34;90.81
62458;BME280;48509;52.122;5.250;2023-03-16T08:37:23;101388.0;;;8.32;89.62
62458;BME280;48509;52.122;5.250;2023-03-16T08:38:59;101390.0;;;8.22;89.68
62458;BME280;48509;52.122;5.250;2023-03-16T08:42:12;101392.0;;;8.16;90.42
62458;BME280;48509;52.122;5.250;2023-03-16T08:43:48;101387.0;;;8.26;88.51
62458;BME280;48509;52.122;5.250;2023-03-16T08:45:24;101390.0;;;8.33;89.71
62458;BME280;48509;52.122;5.250;2023-03-16T08:48:36;101392.0;;;8.3;91.42
62458;BME280;48509;52.122;5.250;2023-03-16T08:50:13;101382.0;;;8.34;91.03
62458;BME280;48509;52.122;5.250;2023-03-16T08:51:49;101383.0;;;8.39;88.54
62458;BME280;48509;52.122;5.250;2023-03-16T08:53:25;101381.0;;;8.48;88.87
62458;BME280;48509;52.122;5.250;2023-03-16T08:56:38;101380.0;;;8.48;89.62
62458;BME280;48509;52.122;5.250;2023-03-16T08:58:14;101371.0;;;8.52;88.18
62458;BME280;48509;52.122;5.250;2023-03-16T08:59:50;101378.0;;;8.57;88.72
62458;BME280;48509;52.122;5.250;2023-03-16T09:03:02;101373.0;;;8.56;86.41
62458;BME280;48509;52.122;5.250;2023-03-16T09:04:41;101369.0;;;8.69;87.24
62458;BME280;48509;52.122;5.250;2023-03-16T09:06:17;101364.0;;;8.75;84.63
62458;BME280;48509;52.122;5.250;2023-03-16T09:09:30;101361.0;;;8.78;84.05
62458;BME280;48509;52.122;5.250;2023-03-16T09:11:08;101362.0;;;8.83;84.24
62458;BME280;48509;52.122;5.250;2023-03-16T09:12:45;101366.0;;;8.75;83.17
62458;BME280;48509;52.122;5.250;2023-03-16T09:14:21;101358.0;;;8.67;83.74
62458;BME280;48509;52.122;5.250;2023-03-16T09:17:34;101377.0;;;8.64;84.76
62458;BME280;48509;52.122;5.250;2023-03-16T09:19:10;101365.0;;;8.73;82.22
62458;BME280;48509;52.122;5.250;2023-03-16T09:20:46;101364.0;;;8.85;82.19
62458;BME280;48509;52.122;5.250;2023-03-16T09:26:13;101364.0;;;8.91;83.74
62458;BME280;48509;52.122;5.250;2023-03-16T09:27:49;101375.0;;;9.01;82.67
62458;BME280;48509;52.122;5.250;2023-03-16T09:29:26;101363.0;;;9.06;81.09
62458;BME280;48509;52.122;5.250;2023-03-16T09:31:02;101359.0;;;9.14;81.86
62458;BME280;48509;52.122;5.250;2023-03-16T09:34:15;101363.0;;;9.22;80.33
62458;BME280;48509;52.122;5.250;2023-03-16T09:35:51;101355.0;;;9.22;80.47
62458;BME280;48509;52.122;5.250;2023-03-16T09:37:28;101367.0;;;9.33;80.3
62458;BME280;48509;52.122;5.250;2023-03-16T09:40:40;101364.0;;;9.19;81.7
62458;BME280;48509;52.122;5.250;2023-03-16T09:42:18;101355.0;;;9.25;79.86
62458;BME280;48509;52.122;5.250;2023-03-16T09:44:08;101357.0;;;9.28;79.47
62458;BME280;48509;52.122;5.250;2023-03-16T09:45:57;101345.0;;;9.42;79.06
62458;BME280;48509;52.122;5.250;2023-03-16T09:49:18;101351.0;;;9.55;78.5
62458;BME280;48509;52.122;5.250;2023-03-16T09:50:57;101349.0;;;9.58;78.66
62458;BME280;48509;52.122;5.250;2023-03-16T09:52:39;101345.0;;;9.66;78.83
62458;BME280;48509;52.122;5.250;2023-03-16T09:54:23;101342.0;;;9.78;79.61
62458;BME280;48509;52.122;5.250;2023-03-16T09:56:07;101347.0;;;9.66;78.27
62458;BME280;48509;52.122;5.250;2023-03-16T09:59:24;101345.0;;;9.83;78.53
62458;BME280;48509;52.122;5.250;2023-03-16T10:01:07;101342.0;;;9.98;79.84
62458;BME280;48509;52.122;5.250;2023-03-16T10:02:57;101335.0;;;9.98;74.39
62458;BME280;48509;52.122;5.250;2023-03-16T10:04:56;101330.0;;;10.03;75.72
62458;BME280;48509;52.122;5.250;2023-03-16T10:06:44;101334.0;;;10.23;73.75
62458;BME280;48509;52.122;5.250;2023-03-16T10:10:19;101344.0;;;10.19;72.94
62458;BME280;48509;52.122;5.250;2023-03-16T10:12:02;101339.0;;;10.15;73.49
62458;BME280;48509;52.122;5.250;2023-03-16T10:13:46;101330.0;;;10.19;75.25
62458;BME280;48509;52.122;5.250;2023-03-16T10:15:26;101331.0;;;10.3;71.33
62458;BME280;48509;52.122;5.250;2023-03-16T10:17:10;101334.0;;;10.43;71.33
62458;BME280;48509;52.122;5.250;2023-03-16T10:20:36;101315.0;;;10.31;72.03
62458;BME280;48509;52.122;5.250;2023-03-16T10:22:17;101340.0;;;10.32;74.7
62458;BME280;48509;52.122;5.250;2023-03-16T10:23:56;101336.0;;;10.41;73.14
62458;BME280;48509;52.122;5.250;2023-03-16T10:25:42;101336.0;;;10.67;73.25
62458;BME280;48509;52.122;5.250;2023-03-16T10:29:03;101331.0;;;10.75;71.66
62458;BME280;48509;52.122;5.250;2023-03-16T10:30:42;101328.0;;;10.88;70.61
62458;BME280;48509;52.122;5.250;2023-03-16T10:32:18;101322.0;;;10.96;70.05
62458;BME280;48509;52.122;5.250;2023-03-16T10:34:01;101323.0;;;11.02;70.83
62458;BME280;48509;52.122;5.250;2023-03-16T10:37:21;101319.0;;;11.05;70.72
62458;BME280;48509;52.122;5.250;2023-03-16T10:39:02;101305.0;;;11.31;71.36
62458;BME280;48509;52.122;5.250;2023-03-16T10:40:40;101305.0;;;11.36;70.77
62458;BME280;48509;52.122;5.250;2023-03-16T10:42:18;101305.0;;;11.55;69.47
62458;BME280;48509;52.122;5.250;2023-03-16T10:45:35;101298.0;;;11.64;67.13
62458;BME280;48509;52.122;5.250;2023-03-16T10:47:17;101302.0;;;11.66;67.24
62458;BME280;48509;52.122;5.250;2023-03-16T10:48:55;101298.0;;;11.66;68.34
62458;BME280;48509;52.122;5.250;2023-03-16T10:50:32;101302.0;;;11.77;66.64
62458;BME280;48509;52.122;5.250;2023-03-16T10:53:56;101305.0;;;11.81;68.11
62458;BME280;48509;52.122;5.250;2023-03-16T10:55:41;101301.0;;;11.74;65.73
62458;BME280;48509;52.122;5.250;2023-03-16T10:57:22;101287.0;;;11.86;67.08
62458;BME280;48509;52.122;5.250;2023-03-16T11:01:09;101291.0;;;11.93;66.52
62458;BME280;48509;52.122;5.250;2023-03-16T11:04:23;101284.0;;;11.91;66.19
62458;BME280;48509;52.122;5.250;2023-03-16T11:06:00;101285.0;;;11.97;66.11
62458;BME280;48509;52.122;5.250;2023-03-16T11:07:38;101286.0;;;11.84;65.17
62458;BME280;48509;52.122;5.250;2023-03-16T11:10:58;101281.0;;;11.78;64.69
62458;BME280;48509;52.122;5.250;2023-03-16T11:12:35;101277.0;;;11.88;65.37
62458;BME280;48509;52.122;5.250;2023-03-16T11:15:51;101275.0;;;11.74;66.02
62458;BME280;48509;52.122;5.250;2023-03-16T11:19:16;101264.0;;;11.9;64.05
62458;BME280;48509;52.122;5.250;2023-03-16T11:20:57;101263.0;;;11.86;65.12